createdAt,value
2022-10-20T00:02:30.554Z,11.90
2022-10-20T00:07:33.970Z,11.80
2022-10-20T00:12:37.776Z,11.80
2022-10-20T00:17:44.708Z,11.70
2022-10-20T00:22:48.173Z,11.70
2022-10-20T00:27:51.498Z,11.60
2022-10-20T00:32:56.148Z,11.60
2022-10-20T00:37:59.442Z,11.50
2022-10-20T00:43:02.758Z,11.50
2022-10-20T00:48:13.500Z,11.40
2022-10-20T00:53:17.710Z,11.40
2022-10-20T00:58:21.412Z,11.30
2022-10-20T01:03:31.470Z,11.20
2022-10-20T01:08:35.034Z,11.10
2022-10-20T01:13:46.371Z,11.10
2022-10-20T01:19:01.971Z,11.00
2022-10-20T01:24:23.794Z,11.00
2022-10-20T01:29:31.472Z,10.90
2022-10-20T01:34:43.247Z,10.80
2022-10-20T01:39:51.960Z,10.40
2022-10-20T01:45:00.413Z,10.00
2022-10-20T01:50:06.992Z,9.70
2022-10-20T01:55:15.011Z,9.40
2022-10-20T02:00:19.802Z,9.30
2022-10-20T02:05:43.892Z,9.40
2022-10-20T02:10:48.890Z,9.50
2022-10-20T02:15:56.611Z,9.60
2022-10-20T02:21:03.832Z,9.50
2022-10-20T02:26:08.784Z,9.20
2022-10-20T02:31:14.162Z,9.30
2022-10-20T02:36:20.004Z,9.40
2022-10-20T02:41:23.761Z,9.40
2022-10-20T02:46:28.408Z,9.40
2022-10-20T02:51:31.677Z,9.50
2022-10-20T02:56:34.966Z,9.50
2022-10-20T03:01:39.654Z,9.40
2022-10-20T03:06:43.124Z,9.40
2022-10-20T03:11:46.437Z,9.30
2022-10-20T03:16:51.086Z,9.30
2022-10-20T03:21:54.405Z,9.30
2022-10-20T03:26:57.691Z,9.30
2022-10-20T03:32:02.321Z,9.30
2022-10-20T03:37:06.302Z,9.30
2022-10-20T03:42:09.622Z,9.20
2022-10-20T03:47:14.632Z,9.20
2022-10-20T03:52:17.913Z,9.20
2022-10-20T03:57:21.705Z,9.20
2022-10-20T04:02:32.934Z,9.20
2022-10-20T04:07:36.424Z,9.20
2022-10-20T04:12:39.749Z,9.20
2022-10-20T04:17:44.421Z,9.20
2022-10-20T04:22:48.089Z,9.10
2022-10-20T04:27:51.467Z,9.00
2022-10-20T04:32:56.085Z,9.00
2022-10-20T04:37:59.631Z,8.90
2022-10-20T04:43:02.944Z,8.90
2022-10-20T04:48:08.455Z,8.80
2022-10-20T04:53:11.707Z,8.70
2022-10-20T04:58:14.986Z,8.50
2022-10-20T05:03:20.040Z,8.50
2022-10-20T05:08:23.330Z,8.50
2022-10-20T05:13:26.585Z,8.50
2022-10-20T05:18:31.812Z,8.60
2022-10-20T05:23:35.173Z,8.60
2022-10-20T05:28:38.688Z,8.60
2022-10-20T05:33:45.526Z,8.60
2022-10-20T05:38:49.152Z,8.60
2022-10-20T05:43:54.172Z,8.50
2022-10-20T05:49:01.233Z,8.50
2022-10-20T05:54:05.522Z,8.40
2022-10-20T05:59:12.291Z,8.30
2022-10-20T06:04:19.063Z,8.10
2022-10-20T06:09:22.884Z,8.00
2022-10-20T06:14:27.081Z,7.90
2022-10-20T06:19:32.058Z,7.80
2022-10-20T06:24:35.562Z,7.80
2022-10-20T06:29:38.813Z,7.80
2022-10-20T06:34:43.694Z,7.60
2022-10-20T06:39:47.404Z,7.50
2022-10-20T06:44:51.275Z,7.30
2022-10-20T06:49:55.909Z,7.40
2022-10-20T06:54:59.176Z,7.40
2022-10-20T07:00:02.971Z,7.70
2022-10-20T07:05:08.877Z,7.90
2022-10-20T07:10:12.172Z,8.10
2022-10-20T07:15:15.884Z,8.30
2022-10-20T07:20:20.454Z,8.50
2022-10-20T07:25:23.969Z,8.70
2022-10-20T07:30:27.367Z,8.90
2022-10-20T07:35:32.685Z,9.00
2022-10-20T07:40:36.053Z,9.10
2022-10-20T07:45:39.402Z,9.30
2022-10-20T07:50:44.335Z,9.40
2022-10-20T07:55:47.931Z,9.50
2022-10-20T08:00:51.165Z,9.60
2022-10-20T08:05:56.191Z,9.70
2022-10-20T08:11:00.712Z,9.80
2022-10-20T08:21:24.567Z,10.00
2022-10-20T08:26:27.984Z,10.10
2022-10-20T08:31:31.576Z,10.30
2022-10-20T08:36:37.507Z,10.40
2022-10-20T08:42:07.663Z,10.40
2022-10-20T08:47:26.660Z,10.50
2022-10-20T08:52:34.369Z,10.60
2022-10-20T08:57:44.269Z,10.70
2022-10-20T09:02:57.701Z,10.80
2022-10-20T09:08:03.912Z,10.90
2022-10-20T09:13:18.507Z,11.00
2022-10-20T09:18:23.788Z,11.10
2022-10-20T09:23:42.473Z,11.10
2022-10-20T09:29:12.143Z,11.20
2022-10-20T09:34:24.818Z,11.40
2022-10-20T09:39:31.754Z,11.40
2022-10-20T09:44:47.833Z,11.50
2022-10-20T09:50:00.922Z,11.50
2022-10-20T09:55:22.341Z,11.60
2022-10-20T10:00:36.748Z,11.70
2022-10-20T10:05:41.163Z,11.80
2022-10-20T10:10:57.941Z,11.90
2022-10-20T10:16:04.074Z,12.00
2022-10-20T10:21:09.744Z,12.10
2022-10-20T10:26:43.829Z,12.20
2022-10-20T10:31:52.186Z,12.30
2022-10-20T10:36:55.756Z,12.50
2022-10-20T10:42:13.495Z,12.60
2022-10-20T10:47:34.226Z,12.70
2022-10-20T10:52:51.789Z,12.80
2022-10-20T10:58:07.345Z,12.90
2022-10-20T11:03:28.389Z,13.00
2022-10-20T11:08:45.610Z,13.10
2022-10-20T11:13:57.724Z,13.20
2022-10-20T11:19:20.408Z,13.40
2022-10-20T11:24:35.227Z,13.50
2022-10-20T11:29:46.611Z,13.60
2022-10-20T11:35:00.028Z,13.70
2022-10-20T11:40:15.042Z,13.80
2022-10-20T11:45:33.431Z,14.00
2022-10-20T11:50:37.481Z,14.10
2022-10-20T11:55:52.894Z,14.20
2022-10-20T12:07:07.574Z,14.40
2022-10-20T12:12:16.127Z,14.60
2022-10-20T12:17:29.048Z,14.70
2022-10-20T12:22:41.088Z,14.80
2022-10-20T12:27:44.385Z,15.00
2022-10-20T12:33:11.764Z,15.10
2022-10-20T12:38:19.342Z,15.20
2022-10-20T12:43:35.045Z,15.30
2022-10-20T12:48:45.799Z,15.40
2022-10-20T12:53:56.226Z,15.50
2022-10-20T12:59:24.352Z,15.50
2022-10-20T13:04:58.009Z,15.60
2022-10-20T13:10:03.535Z,15.70
2022-10-20T13:15:14.022Z,15.80
2022-10-20T13:20:26.690Z,15.90
2022-10-20T13:25:39.944Z,16.00
2022-10-20T13:31:00.441Z,16.10
2022-10-20T13:36:10.050Z,16.20
2022-10-20T13:41:21.108Z,16.30
2022-10-20T13:46:40.551Z,16.30
2022-10-20T13:51:48.643Z,16.30
2022-10-20T13:56:52.849Z,16.40
2022-10-20T14:01:58.350Z,16.40
2022-10-20T14:07:05.841Z,16.40
2022-10-20T14:12:13.880Z,16.30
2022-10-20T14:17:20.807Z,16.30
2022-10-20T14:22:26.437Z,16.20
2022-10-20T14:27:31.831Z,16.00
2022-10-20T14:32:40.260Z,15.90
2022-10-20T14:37:51.779Z,15.80
2022-10-20T14:43:00.518Z,15.60
2022-10-20T14:48:04.009Z,15.60
2022-10-20T14:53:32.933Z,15.50
2022-10-20T14:58:39.908Z,15.50
2022-10-20T15:03:44.696Z,15.30
2022-10-20T15:08:57.871Z,15.30
2022-10-20T15:14:01.454Z,15.20
2022-10-20T15:19:28.224Z,15.10
2022-10-20T15:24:33.566Z,15.00
2022-10-20T15:29:37.194Z,14.90
2022-10-20T15:34:41.027Z,14.90
2022-10-20T15:39:46.312Z,14.70
2022-10-20T15:44:50.071Z,14.70
2022-10-20T15:49:53.710Z,14.60
2022-10-20T15:54:59.329Z,14.50
2022-10-20T16:00:03.105Z,14.40
2022-10-20T16:05:07.331Z,14.30
2022-10-20T16:10:13.896Z,14.20
2022-10-20T16:15:17.912Z,14.10
2022-10-20T16:20:21.446Z,14.00
2022-10-20T16:25:26.326Z,14.00
2022-10-20T16:30:29.899Z,13.90
2022-10-20T16:35:33.441Z,13.80
2022-10-20T16:40:39.110Z,13.70
2022-10-20T16:45:42.757Z,13.60
2022-10-20T16:50:46.336Z,13.50
2022-10-20T16:55:55.748Z,13.40
2022-10-20T17:01:01.334Z,13.30
2022-10-20T17:06:07.094Z,13.30
2022-10-20T17:11:14.712Z,13.20
2022-10-20T17:16:21.500Z,13.10
2022-10-20T17:21:28.075Z,13.10
2022-10-20T17:26:34.114Z,13.00
2022-10-20T17:31:38.155Z,12.90
2022-10-20T17:36:42.037Z,12.90
2022-10-20T17:41:48.135Z,12.80
2022-10-20T17:46:51.775Z,12.70
2022-10-20T17:51:55.305Z,12.60
2022-10-20T17:57:00.253Z,12.50
2022-10-20T18:02:04.008Z,12.40
2022-10-20T18:07:07.588Z,12.30
2022-10-20T18:12:14.399Z,12.20
2022-10-20T18:17:17.975Z,12.20
2022-10-20T18:22:21.658Z,12.10
2022-10-20T18:27:26.823Z,12.00
2022-10-20T18:32:30.936Z,11.90
2022-10-20T18:37:35.130Z,11.70
2022-10-20T18:42:41.340Z,11.50
2022-10-20T18:47:46.134Z,11.50
2022-10-20T18:52:49.996Z,11.50
2022-10-20T18:57:55.090Z,11.60
2022-10-20T19:03:00.904Z,11.70
2022-10-20T19:08:06.600Z,11.70
2022-10-20T19:13:11.531Z,11.70
2022-10-20T19:18:15.498Z,11.70
2022-10-20T19:23:25.757Z,11.70
2022-10-20T19:28:32.115Z,11.60
2022-10-20T19:33:35.758Z,11.50
2022-10-20T19:38:39.309Z,11.30
2022-10-20T19:43:44.408Z,11.20
2022-10-20T19:48:49.083Z,11.30
2022-10-20T19:53:52.659Z,11.20
2022-10-20T19:58:57.895Z,11.20
2022-10-20T20:04:01.779Z,11.20
2022-10-20T20:09:07.898Z,11.30
2022-10-20T20:14:15.945Z,11.30
2022-10-20T20:19:19.543Z,11.20
2022-10-20T20:24:23.376Z,11.20
2022-10-20T20:29:28.520Z,11.20
2022-10-20T20:34:32.289Z,11.10
2022-10-20T20:39:35.867Z,11.10
2022-10-20T20:44:40.873Z,11.10
2022-10-20T20:49:44.532Z,11.00
2022-10-20T20:54:48.386Z,11.00
2022-10-20T21:00:02.273Z,11.00
2022-10-20T21:05:07.250Z,11.00
2022-10-20T21:10:11.155Z,10.90
2022-10-20T21:15:16.689Z,10.90
2022-10-20T21:20:20.554Z,10.90
2022-10-20T21:25:24.410Z,10.80
2022-10-20T21:30:29.345Z,10.80
2022-10-20T21:35:33.211Z,10.80
2022-10-20T21:40:36.750Z,10.80
2022-10-20T21:45:42.038Z,10.80
2022-10-20T21:50:45.953Z,10.80
2022-10-20T21:55:49.565Z,10.70
2022-10-20T22:00:56.130Z,10.60
2022-10-20T22:05:59.948Z,10.60
2022-10-20T22:11:05.433Z,10.60
2022-10-20T22:16:13.344Z,10.60
2022-10-20T22:21:19.111Z,10.50
2022-10-20T22:26:23.702Z,10.50
2022-10-20T22:31:29.322Z,10.50
2022-10-20T22:36:32.971Z,10.50
2022-10-20T22:41:36.924Z,10.50
2022-10-20T22:46:41.862Z,10.50
2022-10-20T22:51:45.413Z,10.50
2022-10-20T22:56:52.015Z,10.50
2022-10-20T23:01:56.764Z,10.50
2022-10-20T23:12:09.027Z,10.40
2022-10-20T23:17:14.330Z,10.40
2022-10-20T23:22:17.740Z,10.40
2022-10-20T23:27:21.137Z,10.30
2022-10-20T23:32:25.866Z,10.30
2022-10-20T23:37:29.170Z,10.30
2022-10-20T23:42:32.714Z,10.30
2022-10-20T23:47:37.662Z,10.20
2022-10-20T23:52:41.263Z,10.10
2022-10-20T23:57:44.538Z,10.10
